Kemerovo, Russia
Current Conditions -  °F | °C
As of 8:00 PM on Thursday 27 Nov 2014 (Local Time) from UNEE Reporting Station
Snow Showers Snow Showers  
Wind Chill: -14°   Ceiling: 900
Heat Index:   Visibility: 1.6mi
Dew Point:   Wind: 18mph
Humidity: 85%   Direction: 300°WNW
Pressure: 29.65"   Gusts: NA
Location:  55.33°N, 86.08°E
Report Text: UNEE 271300Z 30008MPS 2700 -SHSN OVC009CB M15/M17 Q1004 NOSIGRMK QFE730 23454036
Loading
Personal Weather Stations






























Interactive Weather Map New forecast layout! Learn more

10-Day Weather Forecast

Advertisements
Track Severe Weather on mobile